Time;durP1;ratioP1;P1;durP2;ratioP2;P2;SDS_P1;SDS_P2;PMS_P1;PMS_P2;Temp;Humidity;BMP_temperature;BMP_pressure;BME280_temperature;BME280_humidity;BME280_pressure;Samples;Min_cycle;Max_cycle;Signal;HPM_P1;HPM_P2
2020/12/22 00:01:59;;;;;;;9.33;7.07;;;22.10;51.80;;;;;;5073944;28;20257;-77
2020/12/22 00:04:24;;;;;;;8.63;6.43;;;22.10;51.80;;;;;;5073952;28;20635;-77
2020/12/22 00:06:55;;;;;;;10.80;7.20;;;22.10;51.80;;;;;;5073489;28;20190;-77
2020/12/22 00:09:20;;;;;;;11.20;7.20;;;22.10;51.80;;;;;;5074168;28;20208;-77
2020/12/22 00:11:46;;;;;;;7.67;6.20;;;22.20;51.80;;;;;;5074212;28;20767;-77
2020/12/22 00:14:11;;;;;;;10.20;6.80;;;22.10;51.80;;;;;;5073569;28;20221;-77
2020/12/22 00:16:37;;;;;;;11.33;7.13;;;22.20;51.80;;;;;;5073453;28;20213;-77
2020/12/22 00:19:14;;;;;;;13.37;7.30;;;22.20;51.80;;;;;;5073962;28;20659;-77
2020/12/22 00:21:40;;;;;;;13.17;8.10;;;22.10;51.80;;;;;;5073888;28;20241;-77
2020/12/22 00:24:06;;;;;;;10.20;7.23;;;22.10;51.80;;;;;;5073638;28;20837;-77
2020/12/22 00:26:32;;;;;;;12.00;7.70;;;22.20;51.90;;;;;;5073345;28;20222;-78
2020/12/22 00:28:58;;;;;;;11.83;7.27;;;22.20;51.90;;;;;;5073542;28;20472;-77
2020/12/22 00:31:23;;;;;;;9.83;7.10;;;22.10;51.80;;;;;;5073417;28;20167;-77
2020/12/22 00:33:49;;;;;;;9.43;6.77;;;22.10;51.80;;;;;;5073736;28;20167;-77
2020/12/22 00:36:15;;;;;;;11.10;6.77;;;22.10;51.80;;;;;;5073558;28;20231;-78
2020/12/22 00:38:42;;;;;;;9.63;6.50;;;22.10;51.80;;;;;;5073436;28;20408;-78
2020/12/22 00:41:19;;;;;;;12.67;7.40;;;22.10;51.80;;;;;;5073727;28;20267;-78
2020/12/22 00:43:44;;;;;;;10.50;7.20;;;22.10;51.80;;;;;;5073443;28;20401;-77
2020/12/22 00:46:15;;;;;;;13.13;6.60;;;22.10;51.90;;;;;;5073351;28;20843;-77
2020/12/22 00:48:44;;;;;;;9.70;6.67;;;22.10;51.90;;;;;;5073363;28;20194;-77
2020/12/22 00:51:13;;;;;;;9.03;6.33;;;22.10;51.80;;;;;;5073153;28;20419;-78
2020/12/22 00:53:41;;;;;;;8.97;6.30;;;22.10;52.40;;;;;;5075058;28;20745;-77
2020/12/22 00:56:11;;;;;;;7.03;6.00;;;22.10;51.90;;;;;;5077126;28;20425;-77
2020/12/22 00:58:36;;;;;;;13.50;6.90;;;22.10;51.90;;;;;;5077018;28;20413;-77
2020/12/22 01:01:02;;;;;;;8.70;6.30;;;22.10;51.90;;;;;;5076471;28;20434;-76
2020/12/22 01:03:27;;;;;;;10.27;6.80;;;22.10;51.90;;;;;;5076879;28;20224;-78
2020/12/22 01:05:53;;;;;;;8.90;7.07;;;22.10;51.90;;;;;;5076250;28;20269;-77
2020/12/22 01:08:19;;;;;;;9.10;7.10;;;22.10;51.90;;;;;;5076429;28;20588;-77
2020/12/22 01:10:44;;;;;;;8.90;6.23;;;22.10;51.90;;;;;;5076293;28;20167;-77
2020/12/22 01:13:10;;;;;;;8.03;5.80;;;22.10;51.90;;;;;;5076603;28;20253;-75
2020/12/22 01:15:35;;;;;;;10.37;6.73;;;22.10;51.90;;;;;;5076637;28;20200;-77
2020/12/22 01:18:01;;;;;;;11.40;6.80;;;22.10;52.40;;;;;;5076189;28;20196;-77
2020/12/22 01:20:26;;;;;;;9.30;6.00;;;22.10;51.90;;;;;;5076472;28;20185;-77
2020/12/22 01:22:52;;;;;;;7.73;5.83;;;22.10;51.90;;;;;;5076426;28;20568;-77
2020/12/22 01:25:18;;;;;;;8.97;6.40;;;22.10;51.90;;;;;;5076690;28;20273;-77
2020/12/22 01:27:43;;;;;;;8.70;6.53;;;22.00;51.80;;;;;;5075809;28;20259;-77
2020/12/22 01:30:09;;;;;;;8.30;5.80;;;22.10;51.90;;;;;;5076417;28;20171;-78
2020/12/22 01:32:35;;;;;;;9.67;6.20;;;22.10;51.90;;;;;;5076365;28;20245;-77
2020/12/22 01:35:00;;;;;;;8.10;6.20;;;22.00;51.80;;;;;;5075839;28;20247;-77
2020/12/22 01:37:26;;;;;;;7.10;5.83;;;22.00;51.80;;;;;;5076400;28;20518;-77
2020/12/22 01:39:51;;;;;;;8.83;6.77;;;22.00;51.80;;;;;;5075957;28;20186;-78
2020/12/22 01:42:17;;;;;;;10.33;6.30;;;22.10;51.80;;;;;;5075808;28;20253;-78
2020/12/22 01:44:42;;;;;;;8.63;6.07;;;22.10;51.80;;;;;;5076078;28;20170;-77
2020/12/22 01:47:08;;;;;;;8.00;6.67;;;22.00;51.80;;;;;;5075684;28;20251;-76
2020/12/22 01:49:35;;;;;;;6.73;5.60;;;22.10;51.80;;;;;;5074435;28;20166;-77
2020/12/22 01:52:02;;;;;;;9.07;6.67;;;22.00;51.80;;;;;;5075551;28;20417;-77
2020/12/22 01:54:28;;;;;;;7.73;6.87;;;22.10;51.90;;;;;;5074546;28;20409;-77
2020/12/22 01:56:54;;;;;;;9.90;6.27;;;22.10;51.80;;;;;;5075777;28;20527;-77
2020/12/22 01:59:21;;;;;;;9.67;6.80;;;22.10;51.80;;;;;;5075906;28;20596;-77
2020/12/22 02:01:52;;;;;;;5.97;5.37;;;22.10;51.80;;;;;;5075677;28;20487;-77
2020/12/22 02:04:18;;;;;;;9.93;6.73;;;22.10;51.80;;;;;;5075667;28;20393;-77
2020/12/22 02:06:44;;;;;;;8.27;5.67;;;22.10;51.80;;;;;;5075629;28;20424;-77
2020/12/22 02:09:10;;;;;;;8.13;5.80;;;22.00;51.80;;;;;;5075487;28;21016;-77
2020/12/22 02:11:38;;;;;;;7.87;5.57;;;22.00;51.80;;;;;;5075565;28;20170;-78
2020/12/22 02:14:06;;;;;;;8.53;6.03;;;22.00;51.80;;;;;;5075535;28;20416;-78
2020/12/22 02:16:32;;;;;;;9.13;5.20;;;22.00;51.80;;;;;;5075212;28;20456;-77
2020/12/22 02:18:58;;;;;;;9.03;5.57;;;22.00;51.80;;;;;;5075527;28;20417;-78
2020/12/22 02:21:24;;;;;;;5.40;4.80;;;22.00;51.80;;;;;;5075764;28;20499;-77
2020/12/22 02:23:53;;;;;;;7.63;5.30;;;22.00;51.80;;;;;;5075019;28;20462;-77
2020/12/22 02:26:20;;;;;;;11.23;6.13;;;22.00;51.80;;;;;;5075749;28;20975;-78
2020/12/22 02:28:46;;;;;;;7.13;5.57;;;22.00;51.80;;;;;;5074970;28;20444;-77
2020/12/22 02:31:12;;;;;;;6.90;5.43;;;22.00;51.80;;;;;;5075035;28;20474;-78
2020/12/22 02:33:38;;;;;;;7.77;5.63;;;22.00;51.80;;;;;;5075209;28;20155;-77
2020/12/22 02:36:08;;;;;;;7.97;5.10;;;22.00;51.80;;;;;;5075160;28;20585;-78
2020/12/22 02:38:34;;;;;;;8.00;5.10;;;22.00;51.80;;;;;;5075012;28;20154;-77
2020/12/22 02:41:00;;;;;;;7.60;5.67;;;22.00;51.80;;;;;;5074986;28;20409;-78
2020/12/22 02:43:25;;;;;;;6.97;5.27;;;22.00;51.80;;;;;;5075167;28;20640;-76
2020/12/22 02:45:51;;;;;;;9.70;5.63;;;22.00;51.80;;;;;;5073457;28;20197;-78
2020/12/22 02:48:16;;;;;;;6.07;5.03;;;22.00;51.80;;;;;;5074540;28;20213;-77
2020/12/22 02:50:42;;;;;;;7.60;4.90;;;22.00;51.80;;;;;;5074781;28;20212;-77
2020/12/22 02:53:08;;;;;;;5.67;4.50;;;22.00;51.80;;;;;;5074958;28;20175;-75
2020/12/22 02:55:33;;;;;;;7.10;4.70;;;22.00;51.80;;;;;;5074404;28;20201;-77
2020/12/22 02:57:59;;;;;;;7.73;5.43;;;22.00;51.80;;;;;;5074084;28;20196;-78
2020/12/22 03:00:25;;;;;;;7.97;5.10;;;22.00;51.80;;;;;;5074364;28;20210;-77
2020/12/22 03:02:51;;;;;;;5.80;4.73;;;22.00;51.80;;;;;;5075824;28;20227;-76
2020/12/22 03:05:17;;;;;;;6.73;4.83;;;22.00;51.80;;;;;;5075298;28;20922;-78
2020/12/22 03:07:43;;;;;;;8.87;5.57;;;22.00;51.80;;;;;;5075306;28;20694;-78
2020/12/22 03:10:12;;;;;;;7.73;5.17;;;22.00;51.80;;;;;;5075370;28;20482;-78
2020/12/22 03:12:37;;;;;;;6.80;4.67;;;22.00;51.80;;;;;;5075440;28;20417;-78
2020/12/22 03:15:05;;;;;;;5.90;4.50;;;22.00;51.80;;;;;;5075458;28;20444;-78
2020/12/22 03:17:31;;;;;;;7.00;4.50;;;22.00;51.80;;;;;;5074671;28;20313;-78
2020/12/22 03:19:57;;;;;;;6.37;5.60;;;22.00;51.80;;;;;;5075296;28;20405;-78
2020/12/22 03:22:22;;;;;;;7.40;5.40;;;22.00;51.80;;;;;;5075193;28;20170;-77
2020/12/22 03:24:48;;;;;;;6.80;5.10;;;22.00;51.80;;;;;;5075294;28;20545;-78
2020/12/22 03:27:13;;;;;;;5.83;5.23;;;22.00;51.80;;;;;;5074854;28;20198;-77
2020/12/22 03:29:39;;;;;;;6.73;5.27;;;22.00;51.80;;;;;;5075867;28;20167;-77
2020/12/22 03:32:05;;;;;;;7.10;4.80;;;22.00;51.80;;;;;;5075113;28;20170;-77
2020/12/22 03:34:30;;;;;;;4.87;4.40;;;21.90;51.70;;;;;;5075171;28;20185;-78
2020/12/22 03:36:56;;;;;;;7.57;4.40;;;22.00;51.80;;;;;;5075268;28;20206;-78
2020/12/22 03:39:21;;;;;;;6.03;4.30;;;22.00;51.80;;;;;;5075604;28;20170;-78
2020/12/22 03:41:47;;;;;;;5.40;4.57;;;22.00;51.80;;;;;;5075353;28;20175;-77
2020/12/22 03:44:13;;;;;;;5.30;4.53;;;21.90;51.70;;;;;;5075482;28;20612;-77
2020/12/22 03:46:40;;;;;;;6.63;4.90;;;21.90;51.70;;;;;;5075106;28;20716;-78
2020/12/22 03:49:06;;;;;;;5.67;4.40;;;21.90;51.70;;;;;;5074883;28;20455;-78
2020/12/22 03:51:31;;;;;;;6.40;4.60;;;21.90;51.80;;;;;;5074400;28;20412;-77
2020/12/22 03:53:57;;;;;;;5.87;5.27;;;22.00;51.80;;;;;;5073228;28;20173;-76
2020/12/22 03:56:25;;;;;;;4.87;4.17;;;21.90;51.80;;;;;;5072997;28;20685;-77
2020/12/22 03:58:50;;;;;;;5.37;4.40;;;21.90;51.80;;;;;;5073257;28;20551;-77
2020/12/22 04:01:16;;;;;;;6.03;4.27;;;21.90;51.80;;;;;;5073102;28;20412;-77
2020/12/22 04:03:41;;;;;;;7.73;5.03;;;21.90;51.80;;;;;;5073175;28;20653;-77
2020/12/22 04:06:07;;;;;;;7.17;5.00;;;21.90;51.80;;;;;;5072854;28;20205;-77
2020/12/22 04:08:34;;;;;;;5.50;4.43;;;21.90;51.80;;;;;;5072726;28;20263;-76
2020/12/22 04:11:00;;;;;;;6.90;5.23;;;21.90;51.80;;;;;;5072998;28;20177;-76
2020/12/22 04:13:25;;;;;;;5.30;3.97;;;21.90;51.80;;;;;;5073117;28;20496;-76
2020/12/22 04:15:51;;;;;;;5.10;3.90;;;21.90;51.80;;;;;;5072547;28;20228;-77
2020/12/22 04:18:17;;;;;;;6.00;4.30;;;21.90;51.80;;;;;;5073203;28;20159;-77
2020/12/22 04:20:43;;;;;;;7.37;4.70;;;21.90;51.80;;;;;;5072706;28;20170;-77
2020/12/22 04:23:09;;;;;;;7.47;5.10;;;21.90;51.80;;;;;;5072715;28;20167;-77
2020/12/22 04:25:35;;;;;;;8.40;4.90;;;21.90;51.80;;;;;;5072594;28;20485;-77
2020/12/22 04:28:00;;;;;;;6.23;4.83;;;21.90;51.80;;;;;;5074849;28;20194;-77
2020/12/22 04:30:26;;;;;;;6.70;5.00;;;21.90;51.80;;;;;;5076436;28;20182;-77
2020/12/22 04:32:51;;;;;;;5.97;4.07;;;21.90;51.80;;;;;;5076352;28;20173;-77
2020/12/22 04:35:17;;;;;;;6.00;3.73;;;21.90;51.80;;;;;;5076724;28;20661;-77
2020/12/22 04:37:42;;;;;;;5.50;4.40;;;21.90;51.80;;;;;;5076698;28;20269;-76
2020/12/22 04:40:08;;;;;;;6.90;4.90;;;21.90;51.90;;;;;;5076376;28;20271;-77
2020/12/22 04:42:34;;;;;;;5.87;4.53;;;21.90;51.80;;;;;;5076262;28;20170;-77
2020/12/22 04:45:00;;;;;;;6.30;4.37;;;21.90;51.80;;;;;;5076304;28;20178;-77
2020/12/22 04:47:29;;;;;;;5.30;3.90;;;21.90;51.80;;;;;;5076406;28;20220;-77
2020/12/22 04:49:59;;;;;;;6.37;4.80;;;21.90;51.80;;;;;;5075971;28;20929;-77
2020/12/22 04:52:27;;;;;;;5.90;4.53;;;21.90;51.80;;;;;;5076257;28;20775;-77
2020/12/22 04:54:52;;;;;;;5.60;4.70;;;21.90;51.90;;;;;;5075998;28;20416;-77
2020/12/22 04:57:22;;;;;;;6.37;4.50;;;21.90;51.90;;;;;;5075784;28;20428;-77
2020/12/22 04:59:48;;;;;;;4.23;3.40;;;21.80;51.80;;;;;;5075732;28;20170;-77
2020/12/22 05:02:15;;;;;;;7.63;4.77;;;21.90;51.90;;;;;;5074540;28;20979;-77
2020/12/22 05:04:40;;;;;;;5.50;4.90;;;21.80;51.80;;;;;;5075787;28;20404;-77
2020/12/22 05:07:07;;;;;;;5.67;4.40;;;21.90;51.90;;;;;;5075503;28;20436;-77
2020/12/22 05:09:32;;;;;;;5.70;4.53;;;21.90;51.90;;;;;;5075963;28;20171;-77
2020/12/22 05:11:58;;;;;;;5.70;4.77;;;21.80;51.80;;;;;;5076140;28;20892;-77
2020/12/22 05:14:28;;;;;;;6.60;4.33;;;21.80;51.90;;;;;;5075885;28;20223;-77
2020/12/22 05:17:03;;;;;;;6.10;4.43;;;21.80;51.90;;;;;;5076752;28;20459;-76
2020/12/22 05:19:35;;;;;;;5.73;4.23;;;21.80;51.90;;;;;;5075488;28;20388;-75
2020/12/22 05:22:02;;;;;;;4.80;3.97;;;21.80;51.90;;;;;;5075778;28;20377;-77
2020/12/22 05:24:29;;;;;;;5.90;4.90;;;21.80;51.90;;;;;;5075603;28;20408;-76
2020/12/22 05:26:55;;;;;;;4.70;3.57;;;21.80;51.90;;;;;;5075224;28;20424;-76
2020/12/22 05:29:24;;;;;;;5.70;4.17;;;21.80;52.00;;;;;;5075538;28;20427;-75
2020/12/22 05:31:51;;;;;;;5.57;4.23;;;21.80;52.50;;;;;;5075562;28;20432;-77
2020/12/22 05:34:20;;;;;;;5.17;3.93;;;21.70;51.90;;;;;;5075166;28;20821;-76
2020/12/22 05:36:46;;;;;;;5.67;4.50;;;21.70;51.90;;;;;;5075118;28;20413;-77
2020/12/22 05:39:14;;;;;;;5.80;4.10;;;21.80;52.00;;;;;;5074731;28;20451;-77
2020/12/22 05:41:40;;;;;;;4.43;3.70;;;21.80;52.00;;;;;;5075121;28;20487;-77
2020/12/22 05:44:07;;;;;;;6.70;4.90;;;21.80;52.00;;;;;;5075009;28;20420;-77
2020/12/22 05:46:41;;;;;;;4.80;3.97;;;21.80;52.00;;;;;;5073711;28;20429;-76
2020/12/22 05:49:09;;;;;;;5.50;4.10;;;21.80;52.00;;;;;;5075162;28;20536;-76
2020/12/22 05:51:35;;;;;;;6.13;4.23;;;21.80;52.00;;;;;;5074828;28;20775;-77
2020/12/22 05:54:06;;;;;;;6.03;4.07;;;21.80;52.00;;;;;;5074959;28;20408;-77
2020/12/22 05:56:32;;;;;;;4.70;3.97;;;21.80;52.00;;;;;;5074691;28;20205;-77
2020/12/22 05:58:58;;;;;;;5.10;3.67;;;21.80;52.00;;;;;;5074705;28;20419;-77
2020/12/22 06:01:34;;;;;;;6.30;4.07;;;21.70;52.40;;;;;;5075243;28;20380;-77
2020/12/22 06:04:02;;;;;;;5.47;4.03;;;21.80;51.90;;;;;;5075046;28;20316;-77
2020/12/22 06:06:30;;;;;;;5.20;3.30;;;21.80;51.90;;;;;;5074610;28;20460;-76
2020/12/22 06:08:56;;;;;;;4.60;3.97;;;21.80;51.90;;;;;;5074472;28;20813;-77
2020/12/22 06:11:22;;;;;;;5.70;4.50;;;21.80;51.90;;;;;;5074588;28;20444;-77
2020/12/22 06:13:49;;;;;;;5.20;4.10;;;21.80;51.90;;;;;;5074419;28;20408;-77
2020/12/22 06:16:19;;;;;;;4.40;3.57;;;21.80;51.90;;;;;;5074132;28;20443;-77
2020/12/22 06:18:47;;;;;;;5.30;4.80;;;21.90;52.00;;;;;;5074192;28;20487;-77
2020/12/22 06:21:18;;;;;;;4.37;3.57;;;21.80;51.90;;;;;;5074263;28;20408;-77
2020/12/22 06:23:45;;;;;;;4.53;3.70;;;21.80;51.90;;;;;;5074180;28;20420;-76
2020/12/22 06:26:12;;;;;;;4.20;3.50;;;21.80;51.90;;;;;;5074311;28;20491;-76
2020/12/22 06:28:37;;;;;;;4.67;3.47;;;21.90;52.00;;;;;;5074113;28;20456;-76
2020/12/22 06:31:20;;;;;;;4.57;3.50;;;21.90;52.00;;;;;;5074227;28;20416;-76
2020/12/22 06:33:46;;;;;;;3.67;3.27;;;21.90;51.90;;;;;;5073898;28;20529;-75
2020/12/22 06:36:14;;;;;;;3.63;3.13;;;21.90;52.00;;;;;;5073795;28;20431;-74
2020/12/22 06:39:01;;;;;;;4.83;3.23;;;21.90;51.90;;;;;;5073854;28;20466;-75
2020/12/22 06:41:39;;;;;;;4.53;3.90;;;21.90;51.90;;;;;;5074101;28;20392;-75
2020/12/22 06:44:27;;;;;;;4.60;3.33;;;21.90;51.90;;;;;;5072961;28;20825;-74
2020/12/22 06:46:57;;;;;;;4.30;3.53;;;21.90;51.90;;;;;;5072950;28;20467;-74
2020/12/22 06:49:47;;;;;;;7.40;3.40;;;21.90;52.00;;;;;;5072904;28;20448;-76
2020/12/22 06:52:34;;;;;;;5.10;3.00;;;21.90;51.90;;;;;;5072031;28;20408;-75
2020/12/22 06:55:00;;;;;;;6.50;4.13;;;21.80;51.90;;;;;;5073615;28;20419;-76
2020/12/22 06:57:42;;;;;;;5.63;3.50;;;21.80;51.90;;;;;;5073527;28;20466;-75
2020/12/22 07:00:28;;;;;;;4.00;3.40;;;21.90;52.00;;;;;;5073400;28;20933;-75
2020/12/22 07:03:14;;;;;;;3.87;3.17;;;21.90;52.00;;;;;;5073362;28;20427;-75
2020/12/22 07:05:48;;;;;;;4.30;3.87;;;21.90;52.00;;;;;;5073207;28;20440;-74
2020/12/22 07:08:17;;;;;;;4.83;3.47;;;21.80;52.00;;;;;;5073252;28;20458;-76
2020/12/22 07:10:49;;;;;;;4.27;3.03;;;21.90;52.00;;;;;;5073110;28;20470;-75
2020/12/22 07:13:17;;;;;;;4.50;2.87;;;21.90;52.00;;;;;;5073346;28;20389;-75
2020/12/22 07:15:47;;;;;;;4.40;3.27;;;21.90;52.00;;;;;;5073040;28;20421;-76
2020/12/22 07:18:17;;;;;;;6.30;3.90;;;21.80;51.90;;;;;;5073530;28;20763;-76
2020/12/22 07:20:44;;;;;;;4.77;3.57;;;21.90;52.00;;;;;;5071698;28;20499;-76
2020/12/22 07:23:11;;;;;;;3.47;2.97;;;21.90;52.00;;;;;;5073320;28;20435;-75
2020/12/22 07:25:38;;;;;;;4.63;4.10;;;21.90;52.00;;;;;;5071820;28;20428;-76
2020/12/22 07:28:09;;;;;;;4.10;3.67;;;21.90;52.00;;;;;;5072298;28;20475;-76
2020/12/22 07:30:35;;;;;;;4.30;3.63;;;21.90;52.00;;;;;;5072927;28;20409;-76
2020/12/22 07:33:02;;;;;;;3.53;3.20;;;21.90;52.00;;;;;;5073223;28;20932;-76
2020/12/22 07:35:28;;;;;;;4.20;3.33;;;21.90;52.00;;;;;;5073296;28;20198;-75
2020/12/22 07:38:09;;;;;;;4.37;3.40;;;21.90;52.00;;;;;;5073234;28;20420;-76
2020/12/22 07:40:38;;;;;;;4.27;3.10;;;22.00;52.10;;;;;;5072864;28;20788;-76
2020/12/22 07:43:13;;;;;;;3.70;3.03;;;21.90;52.00;;;;;;5073179;28;20405;-76
2020/12/22 07:45:49;;;;;;;3.23;2.80;;;22.00;52.10;;;;;;5073010;28;20428;-75
2020/12/22 07:48:15;;;;;;;5.80;3.50;;;21.90;52.00;;;;;;5072726;28;20447;-75
2020/12/22 07:50:40;;;;;;;3.37;2.93;;;22.00;52.10;;;;;;5072818;28;20421;-75
2020/12/22 07:53:06;;;;;;;5.17;4.00;;;22.00;52.10;;;;;;5073182;28;20208;-78
2020/12/22 07:55:39;;;;;;;4.30;2.83;;;22.00;52.10;;;;;;5072547;28;20273;-74
2020/12/22 07:58:06;;;;;;;6.40;3.77;;;22.00;52.10;;;;;;5073330;28;20273;-76
2020/12/22 08:00:31;;;;;;;4.67;3.20;;;22.00;52.20;;;;;;5073154;28;20416;-76
2020/12/22 08:03:11;;;;;;;6.33;2.70;;;22.00;52.10;;;;;;5075524;28;20417;-76
2020/12/22 08:05:37;;;;;;;4.67;2.80;;;22.00;52.10;;;;;;5077285;28;20632;-77
2020/12/22 08:08:04;;;;;;;4.90;3.27;;;22.00;52.20;;;;;;5076685;28;20542;-77
2020/12/22 08:10:29;;;;;;;3.40;3.10;;;22.00;52.20;;;;;;5076903;28;20170;-77
2020/12/22 08:12:57;;;;;;;5.53;3.37;;;22.00;52.20;;;;;;5077117;28;20548;-76
2020/12/22 08:15:23;;;;;;;3.40;3.10;;;22.00;52.20;;;;;;5076804;28;20555;-76
2020/12/22 08:17:52;;;;;;;3.60;2.90;;;22.00;52.20;;;;;;5076610;28;20507;-76
2020/12/22 08:20:18;;;;;;;4.13;2.83;;;22.00;52.20;;;;;;5076787;28;20166;-76
2020/12/22 08:22:44;;;;;;;3.53;2.80;;;22.00;52.20;;;;;;5077174;28;20826;-77
2020/12/22 08:25:11;;;;;;;3.33;2.70;;;22.00;52.20;;;;;;5076561;28;20174;-77
2020/12/22 08:27:36;;;;;;;5.43;3.63;;;22.00;52.20;;;;;;5076528;28;20448;-76
2020/12/22 08:30:18;;;;;;;3.27;2.97;;;22.00;52.20;;;;;;5075362;28;20980;-72
2020/12/22 08:32:45;;;;;;;4.07;2.87;;;22.10;52.30;;;;;;5076678;28;20159;-71
2020/12/22 08:35:11;;;;;;;4.87;3.17;;;22.00;52.20;;;;;;5075982;28;20499;-70
2020/12/22 08:37:37;;;;;;;4.00;3.00;;;22.10;52.20;;;;;;5076354;28;20447;-71
2020/12/22 08:40:04;;;;;;;4.80;2.67;;;22.10;52.20;;;;;;5074484;28;20467;-73
2020/12/22 08:42:30;;;;;;;4.00;2.63;;;22.10;52.10;;;;;;5076054;28;20174;-73
2020/12/22 08:44:56;;;;;;;4.90;2.90;;;22.10;52.10;;;;;;5076242;28;20796;-68
2020/12/22 08:47:22;;;;;;;5.40;2.70;;;22.10;52.20;;;;;;5075835;28;20508;-72
2020/12/22 08:49:48;;;;;;;3.53;2.53;;;22.10;52.10;;;;;;5076148;28;20513;-73
2020/12/22 08:52:17;;;;;;;4.80;3.20;;;22.10;52.10;;;;;;5076053;28;20233;-72
2020/12/22 08:54:43;;;;;;;3.50;3.07;;;22.20;52.10;;;;;;5075782;28;20427;-71
2020/12/22 08:57:13;;;;;;;3.97;2.83;;;22.20;52.30;;;;;;5075426;28;20429;-74
2020/12/22 08:59:38;;;;;;;3.53;2.70;;;22.20;52.20;;;;;;5075749;28;20397;-71
2020/12/22 09:02:04;;;;;;;3.60;2.43;;;22.20;52.30;;;;;;5075579;28;20420;-70
2020/12/22 09:04:32;;;;;;;3.70;2.70;;;22.20;52.20;;;;;;5075365;28;20183;-69
2020/12/22 09:06:59;;;;;;;3.30;2.70;;;22.20;52.20;;;;;;5075609;28;20567;-70
2020/12/22 09:09:30;;;;;;;3.83;2.70;;;22.20;52.10;;;;;;5075757;28;20451;-70
2020/12/22 09:12:09;;;;;;;4.20;2.97;;;22.20;52.00;;;;;;5075105;28;20962;-71
2020/12/22 09:14:46;;;;;;;4.70;2.77;;;22.20;52.00;;;;;;5073890;28;20415;-71
2020/12/22 09:17:33;;;;;;;4.80;2.50;;;22.20;52.00;;;;;;5075317;28;20826;-71
2020/12/22 09:19:59;;;;;;;3.60;2.47;;;22.20;51.90;;;;;;5075792;28;20403;-71
2020/12/22 09:22:33;;;;;;;3.73;2.40;;;22.20;51.90;;;;;;5075310;28;20417;-71
2020/12/22 09:25:04;;;;;;;4.20;2.17;;;22.20;51.90;;;;;;5075508;28;20400;-70
2020/12/22 09:27:34;;;;;;;3.90;2.40;;;22.30;52.00;;;;;;5075203;28;20444;-73
2020/12/22 09:30:00;;;;;;;3.63;2.83;;;22.20;51.90;;;;;;5075143;28;20404;-73
2020/12/22 09:32:26;;;;;;;2.83;2.20;;;22.20;51.90;;;;;;5075380;28;20758;-70
2020/12/22 09:34:52;;;;;;;3.97;2.77;;;22.20;51.90;;;;;;5075099;28;20429;-70
2020/12/22 09:37:22;;;;;;;3.17;2.37;;;22.20;51.90;;;;;;5075275;28;20493;-69
2020/12/22 09:39:50;;;;;;;3.30;2.60;;;22.20;51.80;;;;;;5074827;28;20409;-70
2020/12/22 09:42:16;;;;;;;5.17;2.63;;;22.20;51.80;;;;;;5075244;28;20393;-69
2020/12/22 09:44:43;;;;;;;3.10;2.37;;;22.20;51.80;;;;;;5074879;28;20515;-70
2020/12/22 09:47:09;;;;;;;2.93;2.40;;;22.20;51.80;;;;;;5074655;28;20490;-75
2020/12/22 09:49:34;;;;;;;3.80;2.60;;;22.20;51.80;;;;;;5073460;28;20566;-69
2020/12/22 09:52:00;;;;;;;3.40;2.43;;;22.20;51.90;;;;;;5075096;28;20625;-69
2020/12/22 09:54:26;;;;;;;3.23;2.17;;;22.20;51.80;;;;;;5074972;28;20187;-70
2020/12/22 09:56:51;;;;;;;2.27;2.00;;;22.20;51.80;;;;;;5074779;28;20269;-69
2020/12/22 09:59:18;;;;;;;3.70;2.70;;;22.20;51.80;;;;;;5074595;28;20197;-70
2020/12/22 10:01:44;;;;;;;2.47;2.27;;;22.20;51.80;;;;;;5074256;28;20524;-70
2020/12/22 10:04:11;;;;;;;6.17;2.30;;;22.30;51.90;;;;;;5074565;28;20427;-70
2020/12/22 10:06:36;;;;;;;2.60;2.03;;;22.30;51.90;;;;;;5074396;28;20451;-70
2020/12/22 10:09:03;;;;;;;2.77;2.47;;;22.30;51.90;;;;;;5074349;28;20452;-71
2020/12/22 10:11:31;;;;;;;3.00;2.40;;;22.30;51.90;;;;;;5074378;28;20173;-71
2020/12/22 10:13:57;;;;;;;3.10;2.43;;;22.30;51.90;;;;;;5074516;28;20516;-70
2020/12/22 10:16:22;;;;;;;2.70;2.10;;;22.30;51.90;;;;;;5074133;28;20527;-75
2020/12/22 10:18:49;;;;;;;2.63;2.13;;;22.30;51.90;;;;;;5074239;28;20659;-71
2020/12/22 10:21:17;;;;;;;2.43;2.00;;;22.30;52.00;;;;;;5074434;28;20185;-65
2020/12/22 10:23:44;;;;;;;2.60;2.30;;;22.30;51.90;;;;;;5074368;28;20413;-70
2020/12/22 10:26:12;;;;;;;3.63;3.00;;;22.30;51.90;;;;;;5074093;28;20436;-70
2020/12/22 10:28:39;;;;;;;3.57;2.33;;;22.40;52.00;;;;;;5073930;28;20911;-68
2020/12/22 10:31:10;;;;;;;3.60;2.43;;;22.40;52.00;;;;;;5073506;28;20506;-69
2020/12/22 10:33:35;;;;;;;2.50;2.10;;;22.40;52.10;;;;;;5073974;28;20896;-71
2020/12/22 10:36:03;;;;;;;2.70;1.97;;;22.40;52.10;;;;;;5073718;28;20507;-73
2020/12/22 10:38:28;;;;;;;2.40;1.97;;;22.40;52.20;;;;;;5074203;28;20186;-69
2020/12/22 10:40:54;;;;;;;2.70;2.33;;;22.50;52.20;;;;;;5073957;28;20465;-70
2020/12/22 10:43:20;;;;;;;3.07;2.10;;;22.50;52.30;;;;;;5073668;28;20204;-69
2020/12/22 10:45:45;;;;;;;8.17;2.80;;;22.40;52.20;;;;;;5073500;28;20256;-69
2020/12/22 10:48:11;;;;;;;3.07;2.30;;;22.40;52.30;;;;;;5074084;28;20194;-70
2020/12/22 10:50:38;;;;;;;3.27;2.30;;;22.40;52.20;;;;;;5073529;28;20190;-67
2020/12/22 10:53:07;;;;;;;3.10;2.40;;;22.40;52.10;;;;;;5073492;28;20245;-69
2020/12/22 10:55:34;;;;;;;2.73;2.03;;;22.50;52.20;;;;;;5073248;28;20437;-67
2020/12/22 10:58:00;;;;;;;5.73;2.73;;;22.40;52.10;;;;;;5073572;28;20409;-67
2020/12/22 11:00:25;;;;;;;3.30;2.20;;;22.50;52.10;;;;;;5072004;28;20769;-67
2020/12/22 11:02:56;;;;;;;3.63;2.20;;;22.50;52.10;;;;;;5073494;28;20423;-68
2020/12/22 11:08:07;;;;;;;2.50;2.30;;;22.50;52.10;;;;;;5073554;28;20439;-68
2020/12/22 11:10:32;;;;;;;4.47;2.20;;;22.50;52.10;;;;;;5073260;28;20457;-65
2020/12/22 11:12:58;;;;;;;3.20;2.00;;;22.50;52.20;;;;;;5073408;28;20790;-68
2020/12/22 11:15:24;;;;;;;2.57;2.00;;;22.50;52.10;;;;;;5073292;28;20225;-70
2020/12/22 11:17:49;;;;;;;3.57;2.10;;;22.50;52.10;;;;;;5073102;28;20190;-66
2020/12/22 11:20:15;;;;;;;2.17;1.60;;;22.50;52.10;;;;;;5073152;28;20174;-71
2020/12/22 11:22:40;;;;;;;2.80;1.87;;;22.50;52.20;;;;;;5074506;28;20661;-65
2020/12/22 11:25:06;;;;;;;2.50;2.30;;;22.50;52.10;;;;;;5073000;28;20159;-68
2020/12/22 11:27:31;;;;;;;2.57;1.80;;;22.50;52.10;;;;;;5072996;28;20198;-66
2020/12/22 11:29:57;;;;;;;2.53;2.00;;;22.50;52.20;;;;;;5072702;28;20178;-68
2020/12/22 11:32:23;;;;;;;2.40;1.90;;;22.50;52.10;;;;;;5071829;28;20176;-68
2020/12/22 11:34:48;;;;;;;1.80;1.63;;;22.50;52.20;;;;;;5071670;28;20633;-67
2020/12/22 11:37:14;;;;;;;3.93;2.30;;;22.50;52.20;;;;;;5072356;28;20276;-68
2020/12/22 11:39:39;;;;;;;2.97;2.20;;;22.50;52.20;;;;;;5072944;28;20178;-67
2020/12/22 11:42:05;;;;;;;3.03;2.03;;;22.50;52.20;;;;;;5073185;28;20723;-65
2020/12/22 11:44:31;;;;;;;2.20;1.90;;;22.60;52.30;;;;;;5072916;28;20174;-66
2020/12/22 11:46:58;;;;;;;2.20;2.00;;;22.50;52.20;;;;;;5072812;28;20194;-66
2020/12/22 11:49:24;;;;;;;2.10;1.60;;;22.60;52.20;;;;;;5073145;28;20440;-66
2020/12/22 11:51:57;;;;;;;2.13;1.80;;;22.60;52.20;;;;;;5072835;28;20408;-67
2020/12/22 11:54:25;;;;;;;3.07;2.27;;;22.60;52.20;;;;;;5072779;28;20170;-66
2020/12/22 11:56:51;;;;;;;2.50;2.10;;;22.60;52.30;;;;;;5072435;28;20437;-67
2020/12/22 11:59:18;;;;;;;3.13;1.80;;;22.60;52.30;;;;;;5073066;28;20928;-69
2020/12/22 12:01:44;;;;;;;3.33;1.60;;;22.60;52.40;;;;;;5072941;28;20471;-67
2020/12/22 12:04:11;;;;;;;2.20;2.00;;;22.60;52.30;;;;;;5072575;28;20931;-67
2020/12/22 12:06:43;;;;;;;3.67;2.03;;;22.50;52.80;;;;;;5072393;28;20465;-67
2020/12/22 12:09:08;;;;;;;2.63;2.10;;;22.60;52.30;;;;;;5072476;28;20452;-67
2020/12/22 12:11:34;;;;;;;3.30;2.37;;;22.50;52.20;;;;;;5072592;28;20431;-67
2020/12/22 12:14:00;;;;;;;4.47;2.30;;;22.50;52.30;;;;;;5072528;28;20178;-66
2020/12/22 12:16:25;;;;;;;6.70;2.93;;;22.60;52.40;;;;;;5072248;28;20669;-67
2020/12/22 12:18:51;;;;;;;3.57;1.80;;;22.50;52.30;;;;;;5072545;28;20174;-69
2020/12/22 12:21:17;;;;;;;3.00;2.40;;;22.50;52.30;;;;;;5073647;28;20490;-72
2020/12/22 12:23:43;;;;;;;3.70;2.30;;;22.50;52.40;;;;;;5072769;28;20182;-72
2020/12/22 12:26:12;;;;;;;3.60;2.03;;;22.50;52.40;;;;;;5072501;28;20428;-73
2020/12/22 12:28:42;;;;;;;2.67;1.97;;;22.60;52.40;;;;;;5072637;28;20495;-71
2020/12/22 12:31:13;;;;;;;4.20;2.47;;;22.50;52.30;;;;;;5072474;28;20458;-70
2020/12/22 12:33:38;;;;;;;4.10;2.30;;;22.50;52.30;;;;;;5072461;28;20970;-70
2020/12/22 12:36:05;;;;;;;5.57;2.60;;;22.50;52.50;;;;;;5072355;28;20527;-71
2020/12/22 12:38:30;;;;;;;3.27;2.70;;;22.50;52.50;;;;;;5072608;28;20178;-70
2020/12/22 12:40:56;;;;;;;3.87;2.40;;;22.50;52.40;;;;;;5072218;28;20462;-69
2020/12/22 12:43:21;;;;;;;3.47;2.67;;;22.50;52.50;;;;;;5072327;28;20546;-68
2020/12/22 12:45:47;;;;;;;6.30;2.63;;;22.50;52.40;;;;;;5072297;28;20194;-69
2020/12/22 12:48:12;;;;;;;4.93;2.10;;;22.60;52.50;;;;;;5073139;28;20527;-69
2020/12/22 12:50:38;;;;;;;5.03;2.47;;;22.60;52.40;;;;;;5075714;28;20170;-69